sensor_id;sensor_type;location;lat;lon;timestamp;P1;durP1;ratioP1;P2;durP2;ratioP2
56427;SDS011;42331;53.578;9.760;2024-03-06T00:01:09;12.80;;;7.17;;
56427;SDS011;42331;53.578;9.760;2024-03-06T00:03:40;21.87;;;8.80;;
56427;SDS011;42331;53.578;9.760;2024-03-06T00:06:11;22.33;;;9.87;;
56427;SDS011;42331;53.578;9.760;2024-03-06T00:08:42;17.73;;;9.47;;
56427;SDS011;42331;53.578;9.760;2024-03-06T00:11:13;20.97;;;9.53;;
56427;SDS011;42331;53.578;9.760;2024-03-06T00:13:45;23.27;;;9.82;;
56427;SDS011;42331;53.578;9.760;2024-03-06T00:16:17;17.13;;;9.10;;
56427;SDS011;42331;53.578;9.760;2024-03-06T00:18:50;18.85;;;8.90;;
56427;SDS011;42331;53.578;9.760;2024-03-06T00:21:21;17.08;;;9.48;;
56427;SDS011;42331;53.578;9.760;2024-03-06T00:23:52;21.23;;;8.77;;
56427;SDS011;42331;53.578;9.760;2024-03-06T00:26:23;15.87;;;9.00;;
56427;SDS011;42331;53.578;9.760;2024-03-06T00:28:54;17.60;;;8.23;;
56427;SDS011;42331;53.578;9.760;2024-03-06T00:31:25;19.47;;;8.17;;
56427;SDS011;42331;53.578;9.760;2024-03-06T00:33:56;15.20;;;8.43;;
56427;SDS011;42331;53.578;9.760;2024-03-06T00:36:27;19.90;;;8.65;;
56427;SDS011;42331;53.578;9.760;2024-03-06T00:38:59;16.70;;;7.97;;
56427;SDS011;42331;53.578;9.760;2024-03-06T00:41:30;16.13;;;8.73;;
56427;SDS011;42331;53.578;9.760;2024-03-06T00:44:01;15.60;;;8.32;;
56427;SDS011;42331;53.578;9.760;2024-03-06T00:46:33;17.85;;;8.27;;
56427;SDS011;42331;53.578;9.760;2024-03-06T00:49:04;13.65;;;7.88;;
56427;SDS011;42331;53.578;9.760;2024-03-06T00:51:35;14.60;;;8.10;;
56427;SDS011;42331;53.578;9.760;2024-03-06T00:54:07;15.70;;;8.02;;
56427;SDS011;42331;53.578;9.760;2024-03-06T00:56:38;17.37;;;7.87;;
56427;SDS011;42331;53.578;9.760;2024-03-06T00:59:09;13.63;;;8.30;;
56427;SDS011;42331;53.578;9.760;2024-03-06T01:01:40;10.35;;;5.85;;
56427;SDS011;42331;53.578;9.760;2024-03-06T01:04:11;17.13;;;8.30;;
56427;SDS011;42331;53.578;9.760;2024-03-06T01:06:42;15.40;;;8.27;;
56427;SDS011;42331;53.578;9.760;2024-03-06T01:09:14;18.30;;;7.57;;
56427;SDS011;42331;53.578;9.760;2024-03-06T01:11:45;14.40;;;7.70;;
56427;SDS011;42331;53.578;9.760;2024-03-06T01:14:17;14.63;;;7.38;;
56427;SDS011;42331;53.578;9.760;2024-03-06T01:16:49;13.95;;;7.63;;
56427;SDS011;42331;53.578;9.760;2024-03-06T01:19:20;10.83;;;5.30;;
56427;SDS011;42331;53.578;9.760;2024-03-06T01:21:51;13.87;;;6.27;;
56427;SDS011;42331;53.578;9.760;2024-03-06T01:24:22;12.07;;;6.47;;
56427;SDS011;42331;53.578;9.760;2024-03-06T01:26:53;11.10;;;6.05;;
56427;SDS011;42331;53.578;9.760;2024-03-06T01:29:24;17.10;;;7.32;;
56427;SDS011;42331;53.578;9.760;2024-03-06T01:31:56;12.65;;;5.80;;
56427;SDS011;42331;53.578;9.760;2024-03-06T01:34:27;12.93;;;6.37;;
56427;SDS011;42331;53.578;9.760;2024-03-06T01:36:58;9.37;;;4.73;;
56427;SDS011;42331;53.578;9.760;2024-03-06T01:39:29;11.03;;;6.13;;
56427;SDS011;42331;53.578;9.760;2024-03-06T01:42:00;14.18;;;6.22;;
56427;SDS011;42331;53.578;9.760;2024-03-06T01:44:31;12.20;;;6.07;;
56427;SDS011;42331;53.578;9.760;2024-03-06T01:47:03;11.97;;;6.37;;
56427;SDS011;42331;53.578;9.760;2024-03-06T01:49:34;12.87;;;6.43;;
56427;SDS011;42331;53.578;9.760;2024-03-06T01:52:05;12.15;;;6.40;;
56427;SDS011;42331;53.578;9.760;2024-03-06T01:54:37;13.10;;;6.22;;
56427;SDS011;42331;53.578;9.760;2024-03-06T01:57:09;13.10;;;5.85;;
56427;SDS011;42331;53.578;9.760;2024-03-06T01:59:40;11.50;;;5.95;;
56427;SDS011;42331;53.578;9.760;2024-03-06T02:02:12;12.60;;;5.88;;
56427;SDS011;42331;53.578;9.760;2024-03-06T02:04:43;13.45;;;6.32;;
56427;SDS011;42331;53.578;9.760;2024-03-06T02:07:14;11.15;;;5.65;;
56427;SDS011;42331;53.578;9.760;2024-03-06T02:09:47;11.15;;;6.18;;
56427;SDS011;42331;53.578;9.760;2024-03-06T02:12:19;13.75;;;6.70;;
56427;SDS011;42331;53.578;9.760;2024-03-06T02:14:50;13.33;;;6.30;;
56427;SDS011;42331;53.578;9.760;2024-03-06T02:17:21;11.77;;;5.93;;
56427;SDS011;42331;53.578;9.760;2024-03-06T02:19:52;8.83;;;4.90;;
56427;SDS011;42331;53.578;9.760;2024-03-06T02:22:24;10.75;;;6.50;;
56427;SDS011;42331;53.578;9.760;2024-03-06T02:24:55;15.43;;;6.87;;
56427;SDS011;42331;53.578;9.760;2024-03-06T02:27:26;12.90;;;5.80;;
56427;SDS011;42331;53.578;9.760;2024-03-06T02:29:57;12.33;;;6.07;;
56427;SDS011;42331;53.578;9.760;2024-03-06T02:32:28;10.87;;;5.87;;
56427;SDS011;42331;53.578;9.760;2024-03-06T02:35:01;12.70;;;6.20;;
56427;SDS011;42331;53.578;9.760;2024-03-06T02:37:33;12.32;;;5.78;;
56427;SDS011;42331;53.578;9.760;2024-03-06T02:40:05;10.07;;;4.88;;
56427;SDS011;42331;53.578;9.760;2024-03-06T02:42:37;10.45;;;5.80;;
56427;SDS011;42331;53.578;9.760;2024-03-06T02:45:08;12.00;;;6.07;;
56427;SDS011;42331;53.578;9.760;2024-03-06T02:47:40;12.57;;;6.90;;
56427;SDS011;42331;53.578;9.760;2024-03-06T02:50:11;14.63;;;6.87;;
56427;SDS011;42331;53.578;9.760;2024-03-06T02:52:42;10.07;;;5.10;;
56427;SDS011;42331;53.578;9.760;2024-03-06T02:55:13;13.07;;;6.43;;
56427;SDS011;42331;53.578;9.760;2024-03-06T02:57:44;14.52;;;6.38;;
56427;SDS011;42331;53.578;9.760;2024-03-06T03:00:15;13.37;;;6.30;;
56427;SDS011;42331;53.578;9.760;2024-03-06T03:02:46;14.10;;;6.00;;
56427;SDS011;42331;53.578;9.760;2024-03-06T03:05:17;13.27;;;6.03;;
56427;SDS011;42331;53.578;9.760;2024-03-06T03:07:49;12.47;;;6.10;;
56427;SDS011;42331;53.578;9.760;2024-03-06T03:10:20;14.02;;;6.25;;
56427;SDS011;42331;53.578;9.760;2024-03-06T03:12:51;13.07;;;6.17;;
56427;SDS011;42331;53.578;9.760;2024-03-06T03:15:22;13.35;;;5.63;;
56427;SDS011;42331;53.578;9.760;2024-03-06T03:17:53;14.37;;;6.80;;
56427;SDS011;42331;53.578;9.760;2024-03-06T03:20:24;17.13;;;5.97;;
56427;SDS011;42331;53.578;9.760;2024-03-06T03:22:56;9.15;;;4.88;;
56427;SDS011;42331;53.578;9.760;2024-03-06T03:25:27;9.87;;;5.83;;
56427;SDS011;42331;53.578;9.760;2024-03-06T03:27:58;12.05;;;5.65;;
56427;SDS011;42331;53.578;9.760;2024-03-06T03:30:29;13.87;;;6.03;;
56427;SDS011;42331;53.578;9.760;2024-03-06T03:33:02;9.30;;;5.18;;
56427;SDS011;42331;53.578;9.760;2024-03-06T03:35:33;9.73;;;4.33;;
56427;SDS011;42331;53.578;9.760;2024-03-06T03:38:04;12.27;;;5.50;;
56427;SDS011;42331;53.578;9.760;2024-03-06T03:40:35;10.23;;;5.80;;
56427;SDS011;42331;53.578;9.760;2024-03-06T03:43:06;10.07;;;5.53;;
56427;SDS011;42331;53.578;9.760;2024-03-06T03:45:37;13.80;;;5.88;;
56427;SDS011;42331;53.578;9.760;2024-03-06T03:48:08;12.70;;;4.87;;
56427;SDS011;42331;53.578;9.760;2024-03-06T03:50:39;12.03;;;5.93;;
56427;SDS011;42331;53.578;9.760;2024-03-06T03:53:10;9.90;;;4.93;;
56427;SDS011;42331;53.578;9.760;2024-03-06T03:55:42;16.53;;;6.03;;
56427;SDS011;42331;53.578;9.760;2024-03-06T03:58:13;12.33;;;6.00;;
56427;SDS011;42331;53.578;9.760;2024-03-06T04:00:44;13.38;;;5.78;;
56427;SDS011;42331;53.578;9.760;2024-03-06T04:03:15;9.87;;;5.60;;
56427;SDS011;42331;53.578;9.760;2024-03-06T04:05:49;10.73;;;4.97;;
56427;SDS011;42331;53.578;9.760;2024-03-06T04:08:20;10.93;;;5.15;;
56427;SDS011;42331;53.578;9.760;2024-03-06T04:10:51;11.00;;;5.37;;
56427;SDS011;42331;53.578;9.760;2024-03-06T04:13:23;10.35;;;5.45;;
56427;SDS011;42331;53.578;9.760;2024-03-06T04:15:54;12.20;;;5.57;;
56427;SDS011;42331;53.578;9.760;2024-03-06T04:18:25;11.05;;;5.72;;
56427;SDS011;42331;53.578;9.760;2024-03-06T04:20:56;8.07;;;3.63;;
56427;SDS011;42331;53.578;9.760;2024-03-06T04:23:28;13.00;;;5.80;;
56427;SDS011;42331;53.578;9.760;2024-03-06T04:25:59;12.20;;;4.53;;
56427;SDS011;42331;53.578;9.760;2024-03-06T04:28:30;11.13;;;5.50;;
56427;SDS011;42331;53.578;9.760;2024-03-06T04:31:02;9.73;;;5.47;;
56427;SDS011;42331;53.578;9.760;2024-03-06T04:33:33;10.15;;;5.40;;
56427;SDS011;42331;53.578;9.760;2024-03-06T04:36:04;13.20;;;5.47;;
56427;SDS011;42331;53.578;9.760;2024-03-06T04:38:35;8.48;;;3.35;;
56427;SDS011;42331;53.578;9.760;2024-03-06T04:41:06;10.63;;;5.05;;
56427;SDS011;42331;53.578;9.760;2024-03-06T04:43:37;13.68;;;5.57;;
56427;SDS011;42331;53.578;9.760;2024-03-06T04:46:12;8.20;;;5.00;;
56427;SDS011;42331;53.578;9.760;2024-03-06T04:48:44;12.15;;;5.32;;
56427;SDS011;42331;53.578;9.760;2024-03-06T04:51:16;11.68;;;5.25;;
56427;SDS011;42331;53.578;9.760;2024-03-06T04:53:49;11.15;;;5.15;;
56427;SDS011;42331;53.578;9.760;2024-03-06T04:56:20;13.50;;;5.33;;
56427;SDS011;42331;53.578;9.760;2024-03-06T04:58:52;11.95;;;5.70;;
56427;SDS011;42331;53.578;9.760;2024-03-06T05:01:23;10.50;;;5.75;;
56427;SDS011;42331;53.578;9.760;2024-03-06T05:03:54;11.73;;;5.50;;
56427;SDS011;42331;53.578;9.760;2024-03-06T05:06:26;11.10;;;5.82;;
56427;SDS011;42331;53.578;9.760;2024-03-06T05:08:57;11.70;;;5.13;;
56427;SDS011;42331;53.578;9.760;2024-03-06T05:11:28;12.87;;;5.70;;
56427;SDS011;42331;53.578;9.760;2024-03-06T05:13:59;14.40;;;5.60;;
56427;SDS011;42331;53.578;9.760;2024-03-06T05:16:31;9.50;;;5.60;;
56427;SDS011;42331;53.578;9.760;2024-03-06T05:19:02;10.30;;;4.90;;
56427;SDS011;42331;53.578;9.760;2024-03-06T05:21:34;8.88;;;4.90;;
56427;SDS011;42331;53.578;9.760;2024-03-06T05:24:05;12.87;;;5.47;;
56427;SDS011;42331;53.578;9.760;2024-03-06T05:26:36;8.43;;;4.20;;
56427;SDS011;42331;53.578;9.760;2024-03-06T05:29:07;9.57;;;5.10;;
56427;SDS011;42331;53.578;9.760;2024-03-06T05:31:38;12.70;;;5.63;;
56427;SDS011;42331;53.578;9.760;2024-03-06T05:34:09;11.23;;;6.10;;
56427;SDS011;42331;53.578;9.760;2024-03-06T05:36:41;12.40;;;5.30;;
56427;SDS011;42331;53.578;9.760;2024-03-06T05:39:12;8.53;;;4.27;;
56427;SDS011;42331;53.578;9.760;2024-03-06T05:41:43;12.33;;;5.70;;
56427;SDS011;42331;53.578;9.760;2024-03-06T05:44:14;13.05;;;5.57;;
56427;SDS011;42331;53.578;9.760;2024-03-06T05:46:45;12.07;;;5.47;;
56427;SDS011;42331;53.578;9.760;2024-03-06T05:49:16;11.55;;;6.05;;
56427;SDS011;42331;53.578;9.760;2024-03-06T05:51:48;10.63;;;5.50;;
56427;SDS011;42331;53.578;9.760;2024-03-06T05:54:20;10.55;;;5.57;;
56427;SDS011;42331;53.578;9.760;2024-03-06T05:56:51;11.43;;;6.20;;
56427;SDS011;42331;53.578;9.760;2024-03-06T05:59:23;12.30;;;5.63;;
56427;SDS011;42331;53.578;9.760;2024-03-06T06:01:54;13.15;;;6.10;;
56427;SDS011;42331;53.578;9.760;2024-03-06T06:04:25;11.88;;;5.82;;
56427;SDS011;42331;53.578;9.760;2024-03-06T06:06:57;14.60;;;5.57;;
56427;SDS011;42331;53.578;9.760;2024-03-06T06:09:28;15.57;;;6.90;;
56427;SDS011;42331;53.578;9.760;2024-03-06T06:11:59;12.90;;;5.33;;
56427;SDS011;42331;53.578;9.760;2024-03-06T06:14:30;9.77;;;5.53;;
56427;SDS011;42331;53.578;9.760;2024-03-06T06:17:01;16.40;;;6.70;;
56427;SDS011;42331;53.578;9.760;2024-03-06T06:19:33;10.10;;;5.90;;
56427;SDS011;42331;53.578;9.760;2024-03-06T06:22:04;8.50;;;4.30;;
56427;SDS011;42331;53.578;9.760;2024-03-06T06:24:35;9.73;;;4.87;;
56427;SDS011;42331;53.578;9.760;2024-03-06T06:27:06;14.47;;;6.43;;
56427;SDS011;42331;53.578;9.760;2024-03-06T06:29:38;12.57;;;5.65;;
56427;SDS011;42331;53.578;9.760;2024-03-06T06:32:09;11.93;;;6.07;;
56427;SDS011;42331;53.578;9.760;2024-03-06T06:34:40;9.00;;;4.57;;
56427;SDS011;42331;53.578;9.760;2024-03-06T06:37:11;12.40;;;5.93;;
56427;SDS011;42331;53.578;9.760;2024-03-06T06:39:42;15.60;;;5.63;;
56427;SDS011;42331;53.578;9.760;2024-03-06T06:42:13;8.47;;;4.10;;
56427;SDS011;42331;53.578;9.760;2024-03-06T06:44:44;13.90;;;5.93;;
56427;SDS011;42331;53.578;9.760;2024-03-06T06:47:14;9.23;;;4.80;;
56427;SDS011;42331;53.578;9.760;2024-03-06T06:49:45;13.93;;;6.17;;
56427;SDS011;42331;53.578;9.760;2024-03-06T06:52:16;13.50;;;6.57;;
56427;SDS011;42331;53.578;9.760;2024-03-06T06:54:47;13.13;;;6.00;;
56427;SDS011;42331;53.578;9.760;2024-03-06T06:57:18;10.20;;;5.90;;
56427;SDS011;42331;53.578;9.760;2024-03-06T06:59:50;14.45;;;5.95;;
56427;SDS011;42331;53.578;9.760;2024-03-06T07:02:20;11.50;;;6.17;;
56427;SDS011;42331;53.578;9.760;2024-03-06T07:04:52;11.02;;;6.10;;
56427;SDS011;42331;53.578;9.760;2024-03-06T07:07:22;11.27;;;6.37;;
56427;SDS011;42331;53.578;9.760;2024-03-06T07:09:53;12.83;;;6.90;;
56427;SDS011;42331;53.578;9.760;2024-03-06T07:12:24;13.10;;;6.47;;
56427;SDS011;42331;53.578;9.760;2024-03-06T07:14:55;14.63;;;6.43;;
56427;SDS011;42331;53.578;9.760;2024-03-06T07:17:25;11.43;;;5.90;;
56427;SDS011;42331;53.578;9.760;2024-03-06T07:19:56;11.07;;;6.00;;
56427;SDS011;42331;53.578;9.760;2024-03-06T07:22:27;9.75;;;5.75;;
56427;SDS011;42331;53.578;9.760;2024-03-06T07:24:58;9.60;;;5.67;;
56427;SDS011;42331;53.578;9.760;2024-03-06T07:27:28;10.57;;;5.90;;
56427;SDS011;42331;53.578;9.760;2024-03-06T07:30:01;12.93;;;6.10;;
56427;SDS011;42331;53.578;9.760;2024-03-06T07:32:31;10.45;;;5.70;;
56427;SDS011;42331;53.578;9.760;2024-03-06T07:35:02;8.37;;;4.43;;
56427;SDS011;42331;53.578;9.760;2024-03-06T07:37:33;10.20;;;5.70;;
56427;SDS011;42331;53.578;9.760;2024-03-06T07:40:05;12.68;;;5.78;;
56427;SDS011;42331;53.578;9.760;2024-03-06T07:42:37;12.10;;;6.00;;
56427;SDS011;42331;53.578;9.760;2024-03-06T07:45:08;15.88;;;6.03;;
56427;SDS011;42331;53.578;9.760;2024-03-06T07:47:40;10.33;;;5.80;;
56427;SDS011;42331;53.578;9.760;2024-03-06T07:50:11;13.32;;;5.63;;
56427;SDS011;42331;53.578;9.760;2024-03-06T07:52:42;7.40;;;4.07;;
56427;SDS011;42331;53.578;9.760;2024-03-06T07:55:13;11.90;;;5.15;;
56427;SDS011;42331;53.578;9.760;2024-03-06T07:57:44;9.40;;;4.80;;
56427;SDS011;42331;53.578;9.760;2024-03-06T08:00:14;6.90;;;3.97;;
56427;SDS011;42331;53.578;9.760;2024-03-06T08:02:46;10.73;;;4.77;;
56427;SDS011;42331;53.578;9.760;2024-03-06T08:05:23;8.80;;;5.15;;
56427;SDS011;42331;53.578;9.760;2024-03-06T08:07:53;10.70;;;5.00;;
56427;SDS011;42331;53.578;9.760;2024-03-06T08:10:24;10.27;;;4.43;;
56427;SDS011;42331;53.578;9.760;2024-03-06T08:12:55;12.82;;;4.80;;
56427;SDS011;42331;53.578;9.760;2024-03-06T08:15:25;9.25;;;4.68;;
56427;SDS011;42331;53.578;9.760;2024-03-06T08:17:56;7.40;;;4.63;;
56427;SDS011;42331;53.578;9.760;2024-03-06T08:20:27;9.73;;;5.07;;
56427;SDS011;42331;53.578;9.760;2024-03-06T08:22:58;10.07;;;5.20;;
56427;SDS011;42331;53.578;9.760;2024-03-06T08:25:29;7.15;;;3.88;;
56427;SDS011;42331;53.578;9.760;2024-03-06T08:28:02;10.98;;;5.40;;
56427;SDS011;42331;53.578;9.760;2024-03-06T08:30:35;11.57;;;5.18;;
56427;SDS011;42331;53.578;9.760;2024-03-06T08:33:06;9.43;;;5.38;;
56427;SDS011;42331;53.578;9.760;2024-03-06T08:35:36;11.33;;;5.70;;
56427;SDS011;42331;53.578;9.760;2024-03-06T08:38:07;12.70;;;5.20;;
56427;SDS011;42331;53.578;9.760;2024-03-06T08:40:38;7.87;;;4.57;;
56427;SDS011;42331;53.578;9.760;2024-03-06T08:43:09;9.40;;;5.10;;
56427;SDS011;42331;53.578;9.760;2024-03-06T08:45:39;10.40;;;6.50;;
56427;SDS011;42331;53.578;9.760;2024-03-06T08:48:10;12.50;;;7.57;;
56427;SDS011;42331;53.578;9.760;2024-03-06T08:50:41;8.00;;;5.07;;
56427;SDS011;42331;53.578;9.760;2024-03-06T08:53:12;9.55;;;5.22;;
56427;SDS011;42331;53.578;9.760;2024-03-06T08:55:44;13.85;;;7.32;;
56427;SDS011;42331;53.578;9.760;2024-03-06T08:58:14;12.53;;;7.60;;
56427;SDS011;42331;53.578;9.760;2024-03-06T09:00:45;14.30;;;7.33;;
56427;SDS011;42331;53.578;9.760;2024-03-06T09:03:16;12.98;;;5.30;;
56427;SDS011;42331;53.578;9.760;2024-03-06T09:05:46;11.95;;;7.20;;
56427;SDS011;42331;53.578;9.760;2024-03-06T09:08:17;10.10;;;6.13;;
56427;SDS011;42331;53.578;9.760;2024-03-06T09:10:48;9.93;;;6.50;;
56427;SDS011;42331;53.578;9.760;2024-03-06T09:13:19;9.43;;;5.93;;
56427;SDS011;42331;53.578;9.760;2024-03-06T09:15:50;11.63;;;5.97;;
56427;SDS011;42331;53.578;9.760;2024-03-06T09:18:20;10.83;;;6.13;;
56427;SDS011;42331;53.578;9.760;2024-03-06T09:20:51;8.00;;;4.32;;
56427;SDS011;42331;53.578;9.760;2024-03-06T09:23:22;8.05;;;4.53;;
56427;SDS011;42331;53.578;9.760;2024-03-06T09:25:52;12.68;;;7.13;;
56427;SDS011;42331;53.578;9.760;2024-03-06T09:28:24;10.88;;;5.82;;
56427;SDS011;42331;53.578;9.760;2024-03-06T09:30:55;12.15;;;6.25;;
56427;SDS011;42331;53.578;9.760;2024-03-06T09:33:27;11.40;;;5.85;;
56427;SDS011;42331;53.578;9.760;2024-03-06T09:35:57;11.47;;;6.87;;
56427;SDS011;42331;53.578;9.760;2024-03-06T09:38:29;10.35;;;6.43;;
56427;SDS011;42331;53.578;9.760;2024-03-06T09:41:00;11.20;;;7.00;;
56427;SDS011;42331;53.578;9.760;2024-03-06T09:43:31;11.75;;;7.53;;
56427;SDS011;42331;53.578;9.760;2024-03-06T09:46:02;11.25;;;7.50;;
56427;SDS011;42331;53.578;9.760;2024-03-06T09:48:34;12.18;;;7.07;;
56427;SDS011;42331;53.578;9.760;2024-03-06T09:51:05;8.50;;;4.97;;
56427;SDS011;42331;53.578;9.760;2024-03-06T09:53:35;13.88;;;7.28;;
56427;SDS011;42331;53.578;9.760;2024-03-06T09:56:07;12.48;;;7.05;;
56427;SDS011;42331;53.578;9.760;2024-03-06T09:58:38;13.27;;;8.82;;
56427;SDS011;42331;53.578;9.760;2024-03-06T10:01:10;13.07;;;8.65;;
56427;SDS011;42331;53.578;9.760;2024-03-06T10:03:43;12.80;;;8.68;;
56427;SDS011;42331;53.578;9.760;2024-03-06T10:06:15;14.63;;;8.43;;
56427;SDS011;42331;53.578;9.760;2024-03-06T10:08:46;17.03;;;7.73;;
56427;SDS011;42331;53.578;9.760;2024-03-06T10:11:17;15.25;;;7.05;;
56427;SDS011;42331;53.578;9.760;2024-03-06T10:13:48;10.35;;;6.65;;
56427;SDS011;42331;53.578;9.760;2024-03-06T10:16:23;10.05;;;6.10;;
56427;SDS011;42331;53.578;9.760;2024-03-06T10:18:53;10.70;;;6.38;;
56427;SDS011;42331;53.578;9.760;2024-03-06T10:21:31;8.13;;;5.25;;
56427;SDS011;42331;53.578;9.760;2024-03-06T10:24:02;11.70;;;5.43;;
56427;SDS011;42331;53.578;9.760;2024-03-06T10:26:33;10.35;;;5.80;;
56427;SDS011;42331;53.578;9.760;2024-03-06T10:29:04;10.32;;;6.22;;
56427;SDS011;42331;53.578;9.760;2024-03-06T10:31:35;8.85;;;5.75;;
56427;SDS011;42331;53.578;9.760;2024-03-06T10:34:06;13.30;;;5.95;;
56427;SDS011;42331;53.578;9.760;2024-03-06T10:36:36;8.87;;;5.80;;
56427;SDS011;42331;53.578;9.760;2024-03-06T10:41:41;10.52;;;5.90;;
56427;SDS011;42331;53.578;9.760;2024-03-06T10:44:13;8.88;;;5.30;;
56427;SDS011;42331;53.578;9.760;2024-03-06T10:46:46;11.70;;;5.55;;
56427;SDS011;42331;53.578;9.760;2024-03-06T10:49:19;10.90;;;6.20;;
56427;SDS011;42331;53.578;9.760;2024-03-06T10:51:57;11.35;;;6.18;;
56427;SDS011;42331;53.578;9.760;2024-03-06T10:54:33;9.35;;;6.03;;
56427;SDS011;42331;53.578;9.760;2024-03-06T10:57:07;9.90;;;5.95;;
56427;SDS011;42331;53.578;9.760;2024-03-06T10:59:40;8.43;;;5.80;;
56427;SDS011;42331;53.578;9.760;2024-03-06T11:02:12;12.25;;;6.75;;
56427;SDS011;42331;53.578;9.760;2024-03-06T11:04:43;11.13;;;6.45;;
56427;SDS011;42331;53.578;9.760;2024-03-06T11:07:15;11.38;;;6.82;;
56427;SDS011;42331;53.578;9.760;2024-03-06T11:09:46;8.82;;;6.07;;
56427;SDS011;42331;53.578;9.760;2024-03-06T11:12:36;10.38;;;6.72;;
56427;SDS011;42331;53.578;9.760;2024-03-06T11:15:18;12.88;;;6.53;;
56427;SDS011;42331;53.578;9.760;2024-03-06T11:17:51;11.60;;;6.55;;
56427;SDS011;42331;53.578;9.760;2024-03-06T11:20:24;10.55;;;6.43;;
56427;SDS011;42331;53.578;9.760;2024-03-06T11:31:00;9.93;;;6.93;;
56427;SDS011;42331;53.578;9.760;2024-03-06T11:33:36;11.52;;;7.03;;
56427;SDS011;42331;53.578;9.760;2024-03-06T11:36:26;12.47;;;7.17;;
56427;SDS011;42331;53.578;9.760;2024-03-06T11:44:20;16.88;;;7.53;;
56427;SDS011;42331;53.578;9.760;2024-03-06T11:47:00;11.50;;;7.07;;
56427;SDS011;42331;53.578;9.760;2024-03-06T11:49:33;11.90;;;7.70;;
56427;SDS011;42331;53.578;9.760;2024-03-06T11:52:05;13.32;;;7.80;;
56427;SDS011;42331;53.578;9.760;2024-03-06T11:54:39;13.38;;;8.20;;
56427;SDS011;42331;53.578;9.760;2024-03-06T11:57:10;14.60;;;7.95;;
56427;SDS011;42331;53.578;9.760;2024-03-06T11:59:42;13.75;;;7.68;;
56427;SDS011;42331;53.578;9.760;2024-03-06T12:02:13;15.15;;;7.78;;
56427;SDS011;42331;53.578;9.760;2024-03-06T12:04:44;14.10;;;7.90;;
56427;SDS011;42331;53.578;9.760;2024-03-06T12:07:14;14.13;;;8.00;;
56427;SDS011;42331;53.578;9.760;2024-03-06T12:09:46;13.40;;;8.32;;
56427;SDS011;42331;53.578;9.760;2024-03-06T12:12:17;14.55;;;8.45;;
56427;SDS011;42331;53.578;9.760;2024-03-06T12:14:57;18.67;;;8.40;;
56427;SDS011;42331;53.578;9.760;2024-03-06T12:17:41;16.73;;;8.48;;
56427;SDS011;42331;53.578;9.760;2024-03-06T12:20:16;14.05;;;8.30;;
56427;SDS011;42331;53.578;9.760;2024-03-06T12:22:51;14.30;;;7.95;;
56427;SDS011;42331;53.578;9.760;2024-03-06T12:25:24;18.38;;;7.85;;
56427;SDS011;42331;53.578;9.760;2024-03-06T12:28:05;13.15;;;8.25;;
56427;SDS011;42331;53.578;9.760;2024-03-06T12:30:41;12.88;;;7.85;;
56427;SDS011;42331;53.578;9.760;2024-03-06T12:33:18;15.57;;;8.32;;
56427;SDS011;42331;53.578;9.760;2024-03-06T12:35:59;15.40;;;8.02;;
56427;SDS011;42331;53.578;9.760;2024-03-06T12:38:32;15.90;;;8.35;;
56427;SDS011;42331;53.578;9.760;2024-03-06T12:41:03;14.40;;;8.20;;
56427;SDS011;42331;53.578;9.760;2024-03-06T12:43:36;14.93;;;8.73;;
56427;SDS011;42331;53.578;9.760;2024-03-06T12:46:06;13.93;;;8.15;;
56427;SDS011;42331;53.578;9.760;2024-03-06T12:48:37;14.25;;;8.30;;
56427;SDS011;42331;53.578;9.760;2024-03-06T12:51:07;11.27;;;6.80;;
56427;SDS011;42331;53.578;9.760;2024-03-06T12:53:38;14.38;;;8.77;;
56427;SDS011;42331;53.578;9.760;2024-03-06T12:56:10;15.15;;;8.30;;
56427;SDS011;42331;53.578;9.760;2024-03-06T12:58:41;13.68;;;8.35;;
56427;SDS011;42331;53.578;9.760;2024-03-06T13:01:11;14.10;;;7.22;;
56427;SDS011;42331;53.578;9.760;2024-03-06T13:03:42;12.05;;;7.03;;
56427;SDS011;42331;53.578;9.760;2024-03-06T13:06:12;11.93;;;7.57;;
56427;SDS011;42331;53.578;9.760;2024-03-06T13:08:43;14.05;;;8.23;;
56427;SDS011;42331;53.578;9.760;2024-03-06T13:11:14;14.77;;;8.23;;
56427;SDS011;42331;53.578;9.760;2024-03-06T13:13:44;14.23;;;8.05;;
56427;SDS011;42331;53.578;9.760;2024-03-06T13:16:18;14.18;;;7.60;;
56427;SDS011;42331;53.578;9.760;2024-03-06T13:18:59;11.70;;;7.40;;
56427;SDS011;42331;53.578;9.760;2024-03-06T13:21:34;13.48;;;8.02;;
56427;SDS011;42331;53.578;9.760;2024-03-06T13:24:10;15.60;;;7.75;;
56427;SDS011;42331;53.578;9.760;2024-03-06T13:26:41;15.82;;;7.22;;
56427;SDS011;42331;53.578;9.760;2024-03-06T13:29:12;12.95;;;8.00;;
56427;SDS011;42331;53.578;9.760;2024-03-06T13:31:43;12.10;;;7.13;;
56427;SDS011;42331;53.578;9.760;2024-03-06T13:34:14;12.65;;;7.68;;
56427;SDS011;42331;53.578;9.760;2024-03-06T13:36:45;12.20;;;6.88;;
56427;SDS011;42331;53.578;9.760;2024-03-06T13:39:15;14.02;;;7.30;;
56427;SDS011;42331;53.578;9.760;2024-03-06T13:41:46;11.68;;;7.05;;
56427;SDS011;42331;53.578;9.760;2024-03-06T13:44:16;12.70;;;7.28;;
56427;SDS011;42331;53.578;9.760;2024-03-06T13:46:47;16.23;;;8.18;;
56427;SDS011;42331;53.578;9.760;2024-03-06T13:49:37;12.25;;;7.68;;
56427;SDS011;42331;53.578;9.760;2024-03-06T13:52:09;16.60;;;7.70;;
56427;SDS011;42331;53.578;9.760;2024-03-06T13:54:41;15.53;;;7.67;;
56427;SDS011;42331;53.578;9.760;2024-03-06T13:57:12;15.20;;;8.57;;
56427;SDS011;42331;53.578;9.760;2024-03-06T13:59:43;11.85;;;7.30;;
56427;SDS011;42331;53.578;9.760;2024-03-06T14:02:14;13.38;;;7.88;;
56427;SDS011;42331;53.578;9.760;2024-03-06T14:04:45;12.13;;;6.65;;
56427;SDS011;42331;53.578;9.760;2024-03-06T14:07:15;11.40;;;6.30;;
56427;SDS011;42331;53.578;9.760;2024-03-06T14:09:46;13.33;;;6.60;;
56427;SDS011;42331;53.578;9.760;2024-03-06T14:12:17;9.60;;;6.15;;
56427;SDS011;42331;53.578;9.760;2024-03-06T14:14:48;10.55;;;6.30;;
56427;SDS011;42331;53.578;9.760;2024-03-06T14:17:19;13.57;;;6.18;;
56427;SDS011;42331;53.578;9.760;2024-03-06T14:19:49;9.00;;;5.60;;
56427;SDS011;42331;53.578;9.760;2024-03-06T14:22:20;11.70;;;5.70;;
56427;SDS011;42331;53.578;9.760;2024-03-06T14:24:50;6.20;;;3.97;;
56427;SDS011;42331;53.578;9.760;2024-03-06T14:27:21;11.80;;;5.80;;
56427;SDS011;42331;53.578;9.760;2024-03-06T14:29:52;9.35;;;5.28;;
56427;SDS011;42331;53.578;9.760;2024-03-06T14:32:24;12.40;;;6.15;;
56427;SDS011;42331;53.578;9.760;2024-03-06T14:34:55;9.75;;;5.95;;
56427;SDS011;42331;53.578;9.760;2024-03-06T14:37:26;13.07;;;5.90;;
56427;SDS011;42331;53.578;9.760;2024-03-06T14:39:58;13.90;;;5.95;;
56427;SDS011;42331;53.578;9.760;2024-03-06T14:42:29;12.60;;;6.45;;
56427;SDS011;42331;53.578;9.760;2024-03-06T14:45:00;12.35;;;6.18;;
56427;SDS011;42331;53.578;9.760;2024-03-06T14:47:31;10.52;;;6.00;;
56427;SDS011;42331;53.578;9.760;2024-03-06T14:50:06;10.35;;;6.18;;
56427;SDS011;42331;53.578;9.760;2024-03-06T14:52:37;14.73;;;6.97;;
56427;SDS011;42331;53.578;9.760;2024-03-06T14:55:09;11.20;;;5.82;;
56427;SDS011;42331;53.578;9.760;2024-03-06T14:57:39;12.45;;;6.10;;
56427;SDS011;42331;53.578;9.760;2024-03-06T15:00:10;8.15;;;5.47;;
56427;SDS011;42331;53.578;9.760;2024-03-06T15:02:42;9.55;;;5.82;;
56427;SDS011;42331;53.578;9.760;2024-03-06T15:05:12;10.77;;;5.68;;
56427;SDS011;42331;53.578;9.760;2024-03-06T15:07:43;8.32;;;4.57;;
56427;SDS011;42331;53.578;9.760;2024-03-06T15:10:14;8.73;;;4.68;;
56427;SDS011;42331;53.578;9.760;2024-03-06T15:12:46;8.10;;;5.05;;
56427;SDS011;42331;53.578;9.760;2024-03-06T15:15:16;9.15;;;4.28;;
56427;SDS011;42331;53.578;9.760;2024-03-06T15:17:47;9.38;;;4.78;;